sensor_id;sensor_type;location;lat;lon;timestamp;temperature;humidity
52495;DHT22;38405;53.212;5.660;2022-07-23T00:01:56;11.70;99.90
52495;DHT22;38405;53.212;5.660;2022-07-23T00:04:24;11.60;99.90
52495;DHT22;38405;53.212;5.660;2022-07-23T00:06:49;11.90;99.90
52495;DHT22;38405;53.212;5.660;2022-07-23T00:09:15;11.50;99.90
52495;DHT22;38405;53.212;5.660;2022-07-23T00:11:41;11.50;99.90
52495;DHT22;38405;53.212;5.660;2022-07-23T00:14:06;11.50;99.90
52495;DHT22;38405;53.212;5.660;2022-07-23T00:16:32;11.50;99.90
52495;DHT22;38405;53.212;5.660;2022-07-23T00:18:57;11.40;99.90
52495;DHT22;38405;53.212;5.660;2022-07-23T00:21:26;11.30;99.90
52495;DHT22;38405;53.212;5.660;2022-07-23T00:23:52;11.40;99.90
52495;DHT22;38405;53.212;5.660;2022-07-23T00:26:18;11.40;99.90
52495;DHT22;38405;53.212;5.660;2022-07-23T00:28:43;11.40;99.90
52495;DHT22;38405;53.212;5.660;2022-07-23T00:31:09;11.40;99.90
52495;DHT22;38405;53.212;5.660;2022-07-23T00:33:34;11.40;99.90
52495;DHT22;38405;53.212;5.660;2022-07-23T00:36:00;11.50;99.90
52495;DHT22;38405;53.212;5.660;2022-07-23T00:38:26;11.40;99.90
52495;DHT22;38405;53.212;5.660;2022-07-23T00:40:51;11.40;99.90
52495;DHT22;38405;53.212;5.660;2022-07-23T00:43:20;11.40;99.90
52495;DHT22;38405;53.212;5.660;2022-07-23T00:45:46;11.40;99.90
52495;DHT22;38405;53.212;5.660;2022-07-23T00:48:11;11.40;99.90
52495;DHT22;38405;53.212;5.660;2022-07-23T00:50:37;11.40;99.90
52495;DHT22;38405;53.212;5.660;2022-07-23T00:53:03;11.30;99.90
52495;DHT22;38405;53.212;5.660;2022-07-23T00:55:29;11.20;99.90
52495;DHT22;38405;53.212;5.660;2022-07-23T00:57:55;11.20;99.90
52495;DHT22;38405;53.212;5.660;2022-07-23T01:00:21;11.10;99.90
52495;DHT22;38405;53.212;5.660;2022-07-23T01:02:47;11.50;99.90
52495;DHT22;38405;53.212;5.660;2022-07-23T01:05:13;11.10;99.90
52495;DHT22;38405;53.212;5.660;2022-07-23T01:07:38;11.00;99.90
52495;DHT22;38405;53.212;5.660;2022-07-23T01:10:05;11.00;99.90
52495;DHT22;38405;53.212;5.660;2022-07-23T01:12:51;11.10;99.90
52495;DHT22;38405;53.212;5.660;2022-07-23T01:15:17;11.20;99.90
52495;DHT22;38405;53.212;5.660;2022-07-23T01:17:42;11.10;99.90
52495;DHT22;38405;53.212;5.660;2022-07-23T01:20:08;11.20;99.90
52495;DHT22;38405;53.212;5.660;2022-07-23T01:22:34;11.20;99.90
52495;DHT22;38405;53.212;5.660;2022-07-23T01:24:59;11.20;99.90
52495;DHT22;38405;53.212;5.660;2022-07-23T01:27:25;11.20;99.90
52495;DHT22;38405;53.212;5.660;2022-07-23T01:29:51;11.30;99.90
52495;DHT22;38405;53.212;5.660;2022-07-23T01:32:16;11.50;99.90
52495;DHT22;38405;53.212;5.660;2022-07-23T01:34:42;11.40;99.90
52495;DHT22;38405;53.212;5.660;2022-07-23T01:37:08;11.50;99.90
52495;DHT22;38405;53.212;5.660;2022-07-23T01:39:34;11.60;99.90
52495;DHT22;38405;53.212;5.660;2022-07-23T01:41:59;11.70;99.90
52495;DHT22;38405;53.212;5.660;2022-07-23T01:44:25;11.80;99.90
52495;DHT22;38405;53.212;5.660;2022-07-23T01:46:50;11.90;99.90
52495;DHT22;38405;53.212;5.660;2022-07-23T01:49:16;11.90;99.90
52495;DHT22;38405;53.212;5.660;2022-07-23T01:51:42;12.00;99.90
52495;DHT22;38405;53.212;5.660;2022-07-23T01:54:28;12.00;99.90
52495;DHT22;38405;53.212;5.660;2022-07-23T01:56:55;12.10;99.90
52495;DHT22;38405;53.212;5.660;2022-07-23T01:59:21;12.10;99.90
52495;DHT22;38405;53.212;5.660;2022-07-23T02:01:47;12.00;99.90
52495;DHT22;38405;53.212;5.660;2022-07-23T02:04:14;12.00;99.90
52495;DHT22;38405;53.212;5.660;2022-07-23T02:06:40;11.80;99.90
52495;DHT22;38405;53.212;5.660;2022-07-23T02:09:05;11.90;99.90
52495;DHT22;38405;53.212;5.660;2022-07-23T02:11:31;12.20;99.90
52495;DHT22;38405;53.212;5.660;2022-07-23T02:13:56;11.80;99.90
52495;DHT22;38405;53.212;5.660;2022-07-23T02:16:22;11.50;99.90
52495;DHT22;38405;53.212;5.660;2022-07-23T02:18:48;11.40;99.90
52495;DHT22;38405;53.212;5.660;2022-07-23T02:21:13;11.50;99.90
52495;DHT22;38405;53.212;5.660;2022-07-23T02:23:39;11.60;99.90
52495;DHT22;38405;53.212;5.660;2022-07-23T02:26:04;11.30;99.90
52495;DHT22;38405;53.212;5.660;2022-07-23T02:28:30;11.20;99.90
52495;DHT22;38405;53.212;5.660;2022-07-23T02:30:56;11.20;99.90
52495;DHT22;38405;53.212;5.660;2022-07-23T02:33:21;11.30;99.90
52495;DHT22;38405;53.212;5.660;2022-07-23T02:35:47;11.20;99.90
52495;DHT22;38405;53.212;5.660;2022-07-23T02:38:13;11.20;99.90
52495;DHT22;38405;53.212;5.660;2022-07-23T02:40:38;11.20;99.90
52495;DHT22;38405;53.212;5.660;2022-07-23T02:43:04;11.10;99.90
52495;DHT22;38405;53.212;5.660;2022-07-23T02:45:30;11.20;99.90
52495;DHT22;38405;53.212;5.660;2022-07-23T02:47:55;11.10;99.90
52495;DHT22;38405;53.212;5.660;2022-07-23T02:50:21;11.10;99.90
52495;DHT22;38405;53.212;5.660;2022-07-23T02:52:47;11.10;99.90
52495;DHT22;38405;53.212;5.660;2022-07-23T02:55:12;11.00;99.90
52495;DHT22;38405;53.212;5.660;2022-07-23T02:57:38;11.00;99.90
52495;DHT22;38405;53.212;5.660;2022-07-23T03:00:05;11.00;99.90
52495;DHT22;38405;53.212;5.660;2022-07-23T03:02:31;11.00;99.90
52495;DHT22;38405;53.212;5.660;2022-07-23T03:04:57;11.00;99.90
52495;DHT22;38405;53.212;5.660;2022-07-23T03:07:23;11.10;99.90
52495;DHT22;38405;53.212;5.660;2022-07-23T03:09:48;11.00;99.90
52495;DHT22;38405;53.212;5.660;2022-07-23T03:12:14;11.00;99.90
52495;DHT22;38405;53.212;5.660;2022-07-23T03:14:41;10.90;99.90
52495;DHT22;38405;53.212;5.660;2022-07-23T03:17:06;10.90;99.90
52495;DHT22;38405;53.212;5.660;2022-07-23T03:19:32;10.90;99.90
52495;DHT22;38405;53.212;5.660;2022-07-23T03:21:58;10.80;99.90
52495;DHT22;38405;53.212;5.660;2022-07-23T03:24:24;10.90;99.90
52495;DHT22;38405;53.212;5.660;2022-07-23T03:27:10;10.90;99.90
52495;DHT22;38405;53.212;5.660;2022-07-23T03:29:36;11.00;99.90
52495;DHT22;38405;53.212;5.660;2022-07-23T03:32:03;10.80;99.90
52495;DHT22;38405;53.212;5.660;2022-07-23T03:34:29;10.80;99.90
52495;DHT22;38405;53.212;5.660;2022-07-23T03:36:54;10.80;99.90
52495;DHT22;38405;53.212;5.660;2022-07-23T03:39:20;10.80;99.90
52495;DHT22;38405;53.212;5.660;2022-07-23T03:41:45;10.80;99.90
52495;DHT22;38405;53.212;5.660;2022-07-23T03:44:11;10.80;99.90
52495;DHT22;38405;53.212;5.660;2022-07-23T03:46:37;10.80;99.90
52495;DHT22;38405;53.212;5.660;2022-07-23T03:49:02;11.20;99.90
52495;DHT22;38405;53.212;5.660;2022-07-23T03:51:28;10.80;99.90
52495;DHT22;38405;53.212;5.660;2022-07-23T03:53:53;11.00;99.90
52495;DHT22;38405;53.212;5.660;2022-07-23T03:56:21;10.80;99.90
52495;DHT22;38405;53.212;5.660;2022-07-23T03:58:46;10.90;99.90
52495;DHT22;38405;53.212;5.660;2022-07-23T04:01:12;11.10;99.90
52495;DHT22;38405;53.212;5.660;2022-07-23T04:03:38;11.00;99.90
52495;DHT22;38405;53.212;5.660;2022-07-23T04:06:03;11.00;99.90
52495;DHT22;38405;53.212;5.660;2022-07-23T04:08:29;11.00;99.90
52495;DHT22;38405;53.212;5.660;2022-07-23T04:10:55;11.10;99.90
52495;DHT22;38405;53.212;5.660;2022-07-23T04:13:20;11.10;99.90
52495;DHT22;38405;53.212;5.660;2022-07-23T04:15:46;11.30;99.90
52495;DHT22;38405;53.212;5.660;2022-07-23T04:18:12;11.10;99.90
52495;DHT22;38405;53.212;5.660;2022-07-23T04:20:38;11.50;99.90
52495;DHT22;38405;53.212;5.660;2022-07-23T04:23:03;11.20;99.90
52495;DHT22;38405;53.212;5.660;2022-07-23T04:25:29;11.50;99.90
52495;DHT22;38405;53.212;5.660;2022-07-23T04:27:55;11.30;99.90
52495;DHT22;38405;53.212;5.660;2022-07-23T04:30:20;11.30;99.90
52495;DHT22;38405;53.212;5.660;2022-07-23T04:32:46;11.30;99.90
52495;DHT22;38405;53.212;5.660;2022-07-23T04:35:12;11.30;99.90
52495;DHT22;38405;53.212;5.660;2022-07-23T04:37:37;11.30;99.90
52495;DHT22;38405;53.212;5.660;2022-07-23T04:40:03;11.60;99.90
52495;DHT22;38405;53.212;5.660;2022-07-23T04:42:29;11.50;99.90
52495;DHT22;38405;53.212;5.660;2022-07-23T04:44:55;11.60;99.90
52495;DHT22;38405;53.212;5.660;2022-07-23T04:47:20;11.60;99.90
52495;DHT22;38405;53.212;5.660;2022-07-23T04:49:46;12.20;99.90
52495;DHT22;38405;53.212;5.660;2022-07-23T04:52:12;11.90;99.90
52495;DHT22;38405;53.212;5.660;2022-07-23T04:54:37;12.00;99.90
52495;DHT22;38405;53.212;5.660;2022-07-23T04:57:03;12.00;99.90
52495;DHT22;38405;53.212;5.660;2022-07-23T04:59:28;12.00;99.90
52495;DHT22;38405;53.212;5.660;2022-07-23T05:01:54;12.10;99.90
52495;DHT22;38405;53.212;5.660;2022-07-23T05:04:19;12.20;99.90
52495;DHT22;38405;53.212;5.660;2022-07-23T05:06:46;12.20;99.90
52495;DHT22;38405;53.212;5.660;2022-07-23T05:09:11;12.30;99.90
52495;DHT22;38405;53.212;5.660;2022-07-23T05:11:37;12.30;99.90
52495;DHT22;38405;53.212;5.660;2022-07-23T05:14:02;12.50;99.90
52495;DHT22;38405;53.212;5.660;2022-07-23T05:16:28;12.60;99.90
52495;DHT22;38405;53.212;5.660;2022-07-23T05:18:54;12.70;99.90
52495;DHT22;38405;53.212;5.660;2022-07-23T05:21:20;12.70;99.90
52495;DHT22;38405;53.212;5.660;2022-07-23T05:23:45;12.80;99.90
52495;DHT22;38405;53.212;5.660;2022-07-23T05:26:11;13.10;99.90
52495;DHT22;38405;53.212;5.660;2022-07-23T05:28:36;13.10;99.90
52495;DHT22;38405;53.212;5.660;2022-07-23T05:31:02;13.10;99.90
52495;DHT22;38405;53.212;5.660;2022-07-23T05:33:29;13.20;99.90
52495;DHT22;38405;53.212;5.660;2022-07-23T05:36:01;13.20;99.90
52495;DHT22;38405;53.212;5.660;2022-07-23T05:38:27;13.30;99.90
52495;DHT22;38405;53.212;5.660;2022-07-23T05:40:52;13.40;99.90
52495;DHT22;38405;53.212;5.660;2022-07-23T05:43:18;13.50;99.90
52495;DHT22;38405;53.212;5.660;2022-07-23T05:45:44;13.70;99.90
52495;DHT22;38405;53.212;5.660;2022-07-23T05:48:09;13.80;99.90
52495;DHT22;38405;53.212;5.660;2022-07-23T05:50:35;13.90;99.90
52495;DHT22;38405;53.212;5.660;2022-07-23T05:53:00;14.00;99.90
52495;DHT22;38405;53.212;5.660;2022-07-23T05:55:26;14.30;99.90
52495;DHT22;38405;53.212;5.660;2022-07-23T05:57:55;14.30;99.90
52495;DHT22;38405;53.212;5.660;2022-07-23T06:00:21;14.40;99.90
52495;DHT22;38405;53.212;5.660;2022-07-23T06:02:47;14.60;99.90
52495;DHT22;38405;53.212;5.660;2022-07-23T06:05:12;14.70;99.90
52495;DHT22;38405;53.212;5.660;2022-07-23T06:07:38;14.90;99.90
52495;DHT22;38405;53.212;5.660;2022-07-23T06:10:04;15.00;99.90
52495;DHT22;38405;53.212;5.660;2022-07-23T06:12:30;15.10;99.90
52495;DHT22;38405;53.212;5.660;2022-07-23T06:14:56;15.40;99.90
52495;DHT22;38405;53.212;5.660;2022-07-23T06:17:24;15.40;99.90
52495;DHT22;38405;53.212;5.660;2022-07-23T06:19:50;15.50;99.90
52495;DHT22;38405;53.212;5.660;2022-07-23T06:22:16;15.70;99.90
52495;DHT22;38405;53.212;5.660;2022-07-23T06:24:41;15.80;99.90
52495;DHT22;38405;53.212;5.660;2022-07-23T06:27:07;16.00;99.90
52495;DHT22;38405;53.212;5.660;2022-07-23T06:29:32;16.20;99.90
52495;DHT22;38405;53.212;5.660;2022-07-23T06:31:58;16.50;99.90
52495;DHT22;38405;53.212;5.660;2022-07-23T06:34:24;16.70;99.90
52495;DHT22;38405;53.212;5.660;2022-07-23T06:36:50;17.00;99.90
52495;DHT22;38405;53.212;5.660;2022-07-23T06:39:15;17.90;99.90
52495;DHT22;38405;53.212;5.660;2022-07-23T06:41:41;18.90;99.90
52495;DHT22;38405;53.212;5.660;2022-07-23T06:44:07;19.60;99.90
52495;DHT22;38405;53.212;5.660;2022-07-23T06:46:33;20.50;99.90
52495;DHT22;38405;53.212;5.660;2022-07-23T06:48:59;21.00;99.90
52495;DHT22;38405;53.212;5.660;2022-07-23T06:51:24;21.00;99.90
52495;DHT22;38405;53.212;5.660;2022-07-23T06:53:50;20.70;99.90
52495;DHT22;38405;53.212;5.660;2022-07-23T06:56:16;20.30;99.90
52495;DHT22;38405;53.212;5.660;2022-07-23T06:58:41;19.90;99.90
52495;DHT22;38405;53.212;5.660;2022-07-23T07:01:07;19.50;99.90
52495;DHT22;38405;53.212;5.660;2022-07-23T07:03:33;19.20;99.90
52495;DHT22;38405;53.212;5.660;2022-07-23T07:05:58;19.10;99.90
52495;DHT22;38405;53.212;5.660;2022-07-23T07:08:24;18.80;99.90
52495;DHT22;38405;53.212;5.660;2022-07-23T07:10:50;18.60;99.90
52495;DHT22;38405;53.212;5.660;2022-07-23T07:13:15;18.60;99.90
52495;DHT22;38405;53.212;5.660;2022-07-23T07:15:41;18.60;99.90
52495;DHT22;38405;53.212;5.660;2022-07-23T07:18:07;18.70;99.90
52495;DHT22;38405;53.212;5.660;2022-07-23T07:20:33;18.80;99.90
52495;DHT22;38405;53.212;5.660;2022-07-23T07:22:59;18.70;99.90
52495;DHT22;38405;53.212;5.660;2022-07-23T07:25:24;18.80;99.90
52495;DHT22;38405;53.212;5.660;2022-07-23T07:27:50;18.80;99.90
52495;DHT22;38405;53.212;5.660;2022-07-23T07:30:16;18.80;99.90
52495;DHT22;38405;53.212;5.660;2022-07-23T07:32:42;18.90;99.90
52495;DHT22;38405;53.212;5.660;2022-07-23T07:35:08;18.80;99.90
52495;DHT22;38405;53.212;5.660;2022-07-23T07:37:34;18.80;99.90
52495;DHT22;38405;53.212;5.660;2022-07-23T07:40:00;18.70;99.90
52495;DHT22;38405;53.212;5.660;2022-07-23T07:42:26;18.70;99.90
52495;DHT22;38405;53.212;5.660;2022-07-23T07:44:51;18.70;99.90
52495;DHT22;38405;53.212;5.660;2022-07-23T07:47:17;18.70;99.90
52495;DHT22;38405;53.212;5.660;2022-07-23T07:49:43;18.70;99.90
52495;DHT22;38405;53.212;5.660;2022-07-23T07:52:09;18.60;99.90
52495;DHT22;38405;53.212;5.660;2022-07-23T07:54:35;18.50;99.90
52495;DHT22;38405;53.212;5.660;2022-07-23T07:57:01;18.30;99.90
52495;DHT22;38405;53.212;5.660;2022-07-23T07:59:26;18.20;99.90
52495;DHT22;38405;53.212;5.660;2022-07-23T08:01:52;18.00;99.90
52495;DHT22;38405;53.212;5.660;2022-07-23T08:04:18;17.90;99.90
52495;DHT22;38405;53.212;5.660;2022-07-23T08:06:44;17.80;99.90
52495;DHT22;38405;53.212;5.660;2022-07-23T08:09:09;17.80;99.90
52495;DHT22;38405;53.212;5.660;2022-07-23T08:11:35;17.80;99.90
52495;DHT22;38405;53.212;5.660;2022-07-23T08:14:01;17.80;99.90
52495;DHT22;38405;53.212;5.660;2022-07-23T08:16:26;17.70;99.90
52495;DHT22;38405;53.212;5.660;2022-07-23T08:18:52;17.80;99.90
52495;DHT22;38405;53.212;5.660;2022-07-23T08:21:17;17.90;99.90
52495;DHT22;38405;53.212;5.660;2022-07-23T08:23:43;17.90;99.90
52495;DHT22;38405;53.212;5.660;2022-07-23T08:26:09;18.10;99.90
52495;DHT22;38405;53.212;5.660;2022-07-23T08:28:35;18.10;99.90
52495;DHT22;38405;53.212;5.660;2022-07-23T08:31:01;18.40;99.90
52495;DHT22;38405;53.212;5.660;2022-07-23T08:33:27;18.80;99.90
52495;DHT22;38405;53.212;5.660;2022-07-23T08:35:52;19.10;99.90
52495;DHT22;38405;53.212;5.660;2022-07-23T08:38:20;19.30;99.90
52495;DHT22;38405;53.212;5.660;2022-07-23T08:40:56;19.40;99.90
52495;DHT22;38405;53.212;5.660;2022-07-23T08:43:30;19.50;99.90
52495;DHT22;38405;53.212;5.660;2022-07-23T08:45:57;19.50;99.90
52495;DHT22;38405;53.212;5.660;2022-07-23T08:48:26;19.60;99.90
52495;DHT22;38405;53.212;5.660;2022-07-23T08:50:54;19.60;99.90
52495;DHT22;38405;53.212;5.660;2022-07-23T08:53:21;19.70;99.90
52495;DHT22;38405;53.212;5.660;2022-07-23T08:55:48;19.70;99.90
52495;DHT22;38405;53.212;5.660;2022-07-23T08:58:15;19.60;99.90
52495;DHT22;38405;53.212;5.660;2022-07-23T09:00:41;19.70;99.90
52495;DHT22;38405;53.212;5.660;2022-07-23T09:03:07;20.30;99.90
52495;DHT22;38405;53.212;5.660;2022-07-23T09:05:33;22.20;99.90
52495;DHT22;38405;53.212;5.660;2022-07-23T09:08:11;24.20;99.90
52495;DHT22;38405;53.212;5.660;2022-07-23T09:10:58;25.80;99.90
52495;DHT22;38405;53.212;5.660;2022-07-23T09:16:19;24.80;99.90
52495;DHT22;38405;53.212;5.660;2022-07-23T09:18:53;24.00;99.90
52495;DHT22;38405;53.212;5.660;2022-07-23T09:24:05;23.00;99.90
52495;DHT22;38405;53.212;5.660;2022-07-23T09:26:41;22.90;99.90
52495;DHT22;38405;53.212;5.660;2022-07-23T09:29:16;23.10;99.90
52495;DHT22;38405;53.212;5.660;2022-07-23T09:31:50;23.30;99.90
52495;DHT22;38405;53.212;5.660;2022-07-23T09:36:47;25.10;99.90
52495;DHT22;38405;53.212;5.660;2022-07-23T09:39:15;25.90;99.90
52495;DHT22;38405;53.212;5.660;2022-07-23T09:41:44;26.00;99.90
52495;DHT22;38405;53.212;5.660;2022-07-23T09:44:15;24.80;99.90
52495;DHT22;38405;53.212;5.660;2022-07-23T09:46:42;24.60;99.90
52495;DHT22;38405;53.212;5.660;2022-07-23T09:51:51;25.10;99.90
52495;DHT22;38405;53.212;5.660;2022-07-23T09:54:26;24.40;99.90
52495;DHT22;38405;53.212;5.660;2022-07-23T09:56:53;24.00;99.90
52495;DHT22;38405;53.212;5.660;2022-07-23T09:59:23;23.90;99.90
52495;DHT22;38405;53.212;5.660;2022-07-23T10:01:50;23.80;99.90
52495;DHT22;38405;53.212;5.660;2022-07-23T10:04:18;23.60;99.90
52495;DHT22;38405;53.212;5.660;2022-07-23T10:06:43;23.20;99.90
52495;DHT22;38405;53.212;5.660;2022-07-23T10:09:12;23.00;99.90
52495;DHT22;38405;53.212;5.660;2022-07-23T10:11:41;23.20;99.90
52495;DHT22;38405;53.212;5.660;2022-07-23T10:14:07;23.60;99.90
52495;DHT22;38405;53.212;5.660;2022-07-23T10:16:33;24.00;99.90
52495;DHT22;38405;53.212;5.660;2022-07-23T10:18:59;24.20;99.90
52495;DHT22;38405;53.212;5.660;2022-07-23T10:21:37;24.20;99.90
52495;DHT22;38405;53.212;5.660;2022-07-23T10:24:25;24.20;99.90
52495;DHT22;38405;53.212;5.660;2022-07-23T10:29:54;24.50;99.90
52495;DHT22;38405;53.212;5.660;2022-07-23T10:35:40;24.80;99.90
52495;DHT22;38405;53.212;5.660;2022-07-23T10:38:18;25.00;99.90
52495;DHT22;38405;53.212;5.660;2022-07-23T10:40:54;25.00;99.90
52495;DHT22;38405;53.212;5.660;2022-07-23T10:43:21;25.00;99.90
52495;DHT22;38405;53.212;5.660;2022-07-23T10:45:47;25.00;99.90
52495;DHT22;38405;53.212;5.660;2022-07-23T10:48:24;25.10;99.90
52495;DHT22;38405;53.212;5.660;2022-07-23T10:51:08;25.40;99.90
52495;DHT22;38405;53.212;5.660;2022-07-23T10:56:15;25.80;99.90
52495;DHT22;38405;53.212;5.660;2022-07-23T10:58:49;25.50;99.90
52495;DHT22;38405;53.212;5.660;2022-07-23T11:01:37;25.60;99.90
52495;DHT22;38405;53.212;5.660;2022-07-23T11:04:04;25.40;99.90
52495;DHT22;38405;53.212;5.660;2022-07-23T11:09:28;25.60;99.90
52495;DHT22;38405;53.212;5.660;2022-07-23T11:15:03;25.60;99.90
52495;DHT22;38405;53.212;5.660;2022-07-23T11:17:30;25.80;99.90
52495;DHT22;38405;53.212;5.660;2022-07-23T11:25:11;25.30;99.90
52495;DHT22;38405;53.212;5.660;2022-07-23T11:27:45;25.40;99.90
52495;DHT22;38405;53.212;5.660;2022-07-23T11:35:39;25.40;99.90
52495;DHT22;38405;53.212;5.660;2022-07-23T11:38:22;25.30;99.90
52495;DHT22;38405;53.212;5.660;2022-07-23T11:40:54;25.30;99.90
52495;DHT22;38405;53.212;5.660;2022-07-23T11:43:21;25.10;99.90
52495;DHT22;38405;53.212;5.660;2022-07-23T11:45:49;25.30;99.90
52495;DHT22;38405;53.212;5.660;2022-07-23T11:48:21;25.40;99.90
52495;DHT22;38405;53.212;5.660;2022-07-23T11:50:48;25.10;99.90
52495;DHT22;38405;53.212;5.660;2022-07-23T11:53:24;24.80;99.90
52495;DHT22;38405;53.212;5.660;2022-07-23T11:55:50;24.60;99.90
52495;DHT22;38405;53.212;5.660;2022-07-23T11:58:16;24.50;99.90
52495;DHT22;38405;53.212;5.660;2022-07-23T12:00:42;24.80;99.90
52495;DHT22;38405;53.212;5.660;2022-07-23T12:03:08;25.20;99.90
52495;DHT22;38405;53.212;5.660;2022-07-23T12:05:35;25.10;99.90
52495;DHT22;38405;53.212;5.660;2022-07-23T12:08:07;25.00;99.90
52495;DHT22;38405;53.212;5.660;2022-07-23T12:10:42;25.20;99.90
52495;DHT22;38405;53.212;5.660;2022-07-23T12:13:19;25.10;99.90
52495;DHT22;38405;53.212;5.660;2022-07-23T12:15:48;24.90;99.90
52495;DHT22;38405;53.212;5.660;2022-07-23T12:18:25;24.80;99.90
52495;DHT22;38405;53.212;5.660;2022-07-23T12:20:54;25.10;99.90
52495;DHT22;38405;53.212;5.660;2022-07-23T12:23:21;25.10;99.90
52495;DHT22;38405;53.212;5.660;2022-07-23T12:25:49;25.00;99.90
52495;DHT22;38405;53.212;5.660;2022-07-23T12:28:17;25.00;99.90
52495;DHT22;38405;53.212;5.660;2022-07-23T12:30:50;25.00;99.90
52495;DHT22;38405;53.212;5.660;2022-07-23T12:33:24;25.10;99.90
52495;DHT22;38405;53.212;5.660;2022-07-23T12:35:52;25.20;99.90
52495;DHT22;38405;53.212;5.660;2022-07-23T12:38:20;25.40;99.90
52495;DHT22;38405;53.212;5.660;2022-07-23T12:40:58;25.50;99.90
52495;DHT22;38405;53.212;5.660;2022-07-23T12:43:33;25.60;99.90
52495;DHT22;38405;53.212;5.660;2022-07-23T12:48:32;25.30;99.90
52495;DHT22;38405;53.212;5.660;2022-07-23T12:51:06;25.20;99.90
52495;DHT22;38405;53.212;5.660;2022-07-23T12:56:05;24.40;99.90
52495;DHT22;38405;53.212;5.660;2022-07-23T12:58:42;24.20;99.90
52495;DHT22;38405;53.212;5.660;2022-07-23T13:01:08;23.90;99.90
52495;DHT22;38405;53.212;5.660;2022-07-23T13:03:40;23.90;99.90
52495;DHT22;38405;53.212;5.660;2022-07-23T13:06:09;24.00;99.90
52495;DHT22;38405;53.212;5.660;2022-07-23T13:08:36;23.90;99.90
52495;DHT22;38405;53.212;5.660;2022-07-23T13:11:04;24.00;99.90
52495;DHT22;38405;53.212;5.660;2022-07-23T13:13:32;24.10;99.90
52495;DHT22;38405;53.212;5.660;2022-07-23T13:15:58;24.00;99.90
52495;DHT22;38405;53.212;5.660;2022-07-23T13:18:25;23.90;99.90
52495;DHT22;38405;53.212;5.660;2022-07-23T13:20:50;23.90;99.90
52495;DHT22;38405;53.212;5.660;2022-07-23T13:23:17;23.60;99.90
52495;DHT22;38405;53.212;5.660;2022-07-23T13:25:43;23.60;99.90
52495;DHT22;38405;53.212;5.660;2022-07-23T13:28:09;23.60;99.90
52495;DHT22;38405;53.212;5.660;2022-07-23T13:30:34;23.60;99.90
52495;DHT22;38405;53.212;5.660;2022-07-23T13:33:02;23.60;99.90
52495;DHT22;38405;53.212;5.660;2022-07-23T13:35:28;23.40;99.90
52495;DHT22;38405;53.212;5.660;2022-07-23T13:37:54;23.40;99.90
52495;DHT22;38405;53.212;5.660;2022-07-23T13:40:20;23.50;99.90
52495;DHT22;38405;53.212;5.660;2022-07-23T13:42:46;23.50;99.90
52495;DHT22;38405;53.212;5.660;2022-07-23T13:45:12;23.60;99.90
52495;DHT22;38405;53.212;5.660;2022-07-23T13:47:37;23.60;99.90
52495;DHT22;38405;53.212;5.660;2022-07-23T13:50:04;23.60;99.90
52495;DHT22;38405;53.212;5.660;2022-07-23T13:52:30;23.60;99.90
52495;DHT22;38405;53.212;5.660;2022-07-23T13:54:57;23.50;99.90
52495;DHT22;38405;53.212;5.660;2022-07-23T13:57:23;23.40;99.90
52495;DHT22;38405;53.212;5.660;2022-07-23T13:59:49;23.40;99.90
52495;DHT22;38405;53.212;5.660;2022-07-23T14:02:17;23.40;99.90
52495;DHT22;38405;53.212;5.660;2022-07-23T14:04:43;23.40;99.90
52495;DHT22;38405;53.212;5.660;2022-07-23T14:07:09;23.40;99.90
52495;DHT22;38405;53.212;5.660;2022-07-23T14:09:35;23.40;99.90
52495;DHT22;38405;53.212;5.660;2022-07-23T14:12:01;23.40;99.90
52495;DHT22;38405;53.212;5.660;2022-07-23T14:14:27;23.40;99.90
52495;DHT22;38405;53.212;5.660;2022-07-23T14:16:52;23.30;99.90
52495;DHT22;38405;53.212;5.660;2022-07-23T14:19:18;23.30;99.90
52495;DHT22;38405;53.212;5.660;2022-07-23T14:21:44;23.20;99.90
52495;DHT22;38405;53.212;5.660;2022-07-23T14:24:09;23.20;99.90
52495;DHT22;38405;53.212;5.660;2022-07-23T14:26:35;23.20;99.90
52495;DHT22;38405;53.212;5.660;2022-07-23T14:29:01;23.30;99.90
52495;DHT22;38405;53.212;5.660;2022-07-23T14:31:27;23.30;99.90
52495;DHT22;38405;53.212;5.660;2022-07-23T14:33:52;23.30;99.90
52495;DHT22;38405;53.212;5.660;2022-07-23T14:36:18;23.30;99.90
52495;DHT22;38405;53.212;5.660;2022-07-23T14:38:44;23.30;99.90
52495;DHT22;38405;53.212;5.660;2022-07-23T14:41:09;23.40;99.90
52495;DHT22;38405;53.212;5.660;2022-07-23T14:43:36;23.30;99.90
52495;DHT22;38405;53.212;5.660;2022-07-23T14:46:02;23.40;99.90
52495;DHT22;38405;53.212;5.660;2022-07-23T14:48:28;23.40;99.90
52495;DHT22;38405;53.212;5.660;2022-07-23T14:50:54;23.40;99.90
52495;DHT22;38405;53.212;5.660;2022-07-23T14:53:19;23.40;99.90
52495;DHT22;38405;53.212;5.660;2022-07-23T14:55:45;23.40;99.90
52495;DHT22;38405;53.212;5.660;2022-07-23T14:58:11;23.40;99.90
52495;DHT22;38405;53.212;5.660;2022-07-23T15:00:36;23.40;99.90
52495;DHT22;38405;53.212;5.660;2022-07-23T15:03:02;23.40;99.90
52495;DHT22;38405;53.212;5.660;2022-07-23T15:05:28;23.50;99.90
52495;DHT22;38405;53.212;5.660;2022-07-23T15:07:54;23.60;99.90
52495;DHT22;38405;53.212;5.660;2022-07-23T15:10:20;23.60;99.90
52495;DHT22;38405;53.212;5.660;2022-07-23T15:12:46;23.70;99.90
52495;DHT22;38405;53.212;5.660;2022-07-23T15:15:12;23.70;99.90
52495;DHT22;38405;53.212;5.660;2022-07-23T15:17:38;23.70;99.90
52495;DHT22;38405;53.212;5.660;2022-07-23T15:20:05;23.80;99.90
52495;DHT22;38405;53.212;5.660;2022-07-23T15:22:30;23.70;99.90
52495;DHT22;38405;53.212;5.660;2022-07-23T15:24:58;23.60;99.90
52495;DHT22;38405;53.212;5.660;2022-07-23T15:27:24;23.60;99.90
52495;DHT22;38405;53.212;5.660;2022-07-23T15:29:50;23.70;99.90
52495;DHT22;38405;53.212;5.660;2022-07-23T15:32:15;23.70;99.90
52495;DHT22;38405;53.212;5.660;2022-07-23T15:34:41;23.70;99.90
52495;DHT22;38405;53.212;5.660;2022-07-23T15:37:07;23.70;99.90
52495;DHT22;38405;53.212;5.660;2022-07-23T15:39:32;23.70;99.90
52495;DHT22;38405;53.212;5.660;2022-07-23T15:41:59;23.70;99.90
52495;DHT22;38405;53.212;5.660;2022-07-23T15:44:25;23.80;99.90
52495;DHT22;38405;53.212;5.660;2022-07-23T15:46:51;23.80;99.90
52495;DHT22;38405;53.212;5.660;2022-07-23T15:49:16;23.70;99.90
52495;DHT22;38405;53.212;5.660;2022-07-23T15:51:42;23.80;99.90
52495;DHT22;38405;53.212;5.660;2022-07-23T15:54:08;23.90;99.90
52495;DHT22;38405;53.212;5.660;2022-07-23T15:56:34;23.90;99.90
52495;DHT22;38405;53.212;5.660;2022-07-23T15:58:59;23.90;99.90
52495;DHT22;38405;53.212;5.660;2022-07-23T16:01:25;23.90;99.90
52495;DHT22;38405;53.212;5.660;2022-07-23T16:03:50;23.90;99.90
52495;DHT22;38405;53.212;5.660;2022-07-23T16:06:16;23.90;99.80
52495;DHT22;38405;53.212;5.660;2022-07-23T16:08:42;23.90;99.40
52495;DHT22;38405;53.212;5.660;2022-07-23T16:11:08;23.80;99.60